Time;durP1;ratioP1;P1;durP2;ratioP2;P2;SDS_P1;SDS_P2;PMS_P1;PMS_P2;Temp;Humidity;BMP_temperature;BMP_pressure;BME280_temperature;BME280_humidity;BME280_pressure;Samples;Min_cycle;Max_cycle;Signal;HPM_P1;HPM_P2
2022/01/01 00:00:33;;;;;;;29.52;15.90;;;;;;;;;;5073885;28;20040;-64
2022/01/01 00:02:59;;;;;;;30.02;14.85;;;;;;;;;;5073937;28;20047;-64
2022/01/01 00:05:24;;;;;;;29.95;15.02;;;;;;;;;;5071520;28;20201;-65
2022/01/01 00:07:50;;;;;;;22.35;11.75;;;;;;;;;;5074103;28;20120;-63
2022/01/01 00:10:16;;;;;;;24.60;14.30;;;;;;;;;;5055090;28;20358;-64
2022/01/01 00:12:42;;;;;;;27.38;14.38;;;;;;;;;;5073804;28;20068;-64
2022/01/01 00:15:08;;;;;;;26.33;13.52;;;;;;;;;;5072790;28;20141;-67
2022/01/01 00:17:33;;;;;;;27.58;14.40;;;;;;;;;;5072305;28;20035;-64
2022/01/01 00:19:59;;;;;;;25.88;13.75;;;;;;;;;;5071927;28;20039;-64
2022/01/01 00:22:24;;;;;;;26.15;14.07;;;;;;;;;;5071193;28;20028;-64
2022/01/01 00:24:49;;;;;;;23.98;13.20;;;;;;;;;;5072591;28;20422;-64
2022/01/01 00:27:15;;;;;;;26.02;14.20;;;;;;;;;;5071706;28;20047;-65
2022/01/01 00:29:43;;;;;;;25.27;14.23;;;;;;;;;;5072385;28;20059;-64
2022/01/01 00:32:09;;;;;;;28.33;15.40;;;;;;;;;;5072671;28;20128;-66
2022/01/01 00:34:35;;;;;;;27.30;14.45;;;;;;;;;;5073611;28;20108;-65
2022/01/01 00:37:00;;;;;;;25.23;12.70;;;;;;;;;;5054158;28;20043;-64
2022/01/01 00:39:26;;;;;;;28.15;15.40;;;;;;;;;;5051126;28;20606;-65
2022/01/01 00:41:51;;;;;;;31.95;15.38;;;;;;;;;;5053524;28;20098;-64
2022/01/01 00:44:16;;;;;;;31.45;13.95;;;;;;;;;;5052249;28;20056;-65
2022/01/01 00:46:42;;;;;;;26.50;14.88;;;;;;;;;;5053427;28;20033;-64
2022/01/01 00:49:07;;;;;;;26.88;13.98;;;;;;;;;;5051792;28;20458;-66
2022/01/01 00:51:33;;;;;;;27.50;14.00;;;;;;;;;;5068757;28;20032;-64
2022/01/01 00:53:58;;;;;;;28.95;13.82;;;;;;;;;;5073430;28;20028;-64
2022/01/01 00:56:24;;;;;;;29.92;12.80;;;;;;;;;;5071974;28;20047;-64
2022/01/01 00:58:50;;;;;;;34.58;13.75;;;;;;;;;;5072863;28;20071;-65
2022/01/01 01:01:15;;;;;;;26.17;11.60;;;;;;;;;;5072128;28;20362;-65
2022/01/01 01:03:40;;;;;;;23.85;11.32;;;;;;;;;;5072670;28;20111;-64
2022/01/01 01:06:06;;;;;;;23.70;10.50;;;;;;;;;;5070999;28;20118;-64
2022/01/01 01:08:31;;;;;;;25.88;11.95;;;;;;;;;;5072139;28;20523;-64
2022/01/01 01:10:57;;;;;;;25.48;11.13;;;;;;;;;;5072727;28;20039;-64
2022/01/01 01:13:24;;;;;;;26.75;11.27;;;;;;;;;;5071391;28;20028;-64
2022/01/01 01:15:50;;;;;;;26.67;11.40;;;;;;;;;;5072895;28;20036;-64
2022/01/01 01:18:16;;;;;;;22.63;11.32;;;;;;;;;;5071749;28;20028;-65
2022/01/01 01:20:41;;;;;;;21.75;9.63;;;;;;;;;;5058748;28;20032;-64
2022/01/01 01:23:07;;;;;;;26.30;11.23;;;;;;;;;;5052686;28;20378;-64
2022/01/01 01:25:39;;;;;;;25.90;10.93;;;;;;;;;;5051829;28;20037;-64
2022/01/01 01:28:07;;;;;;;28.10;11.70;;;;;;;;;;5052803;28;20037;-64
2022/01/01 01:30:37;;;;;;;25.60;10.68;;;;;;;;;;5051623;28;20094;-64
2022/01/01 01:33:03;;;;;;;26.95;11.57;;;;;;;;;;5052461;28;20025;-64
2022/01/01 01:35:29;;;;;;;28.08;11.85;;;;;;;;;;5062500;28;20029;-64
2022/01/01 01:37:54;;;;;;;26.65;11.20;;;;;;;;;;5062087;28;20033;-64
2022/01/01 01:40:20;;;;;;;25.67;11.63;;;;;;;;;;5070084;28;20115;-64
2022/01/01 01:42:46;;;;;;;26.70;11.82;;;;;;;;;;5070734;28;20119;-63
2022/01/01 01:45:16;;;;;;;26.00;10.90;;;;;;;;;;5071835;28;20032;-65
2022/01/01 01:47:44;;;;;;;26.60;11.02;;;;;;;;;;5071857;28;20386;-63
2022/01/01 01:50:11;;;;;;;20.58;9.98;;;;;;;;;;5067644;28;20033;-65
2022/01/01 01:52:39;;;;;;;25.70;10.50;;;;;;;;;;5071497;28;20037;-63
2022/01/01 01:55:08;;;;;;;22.58;9.25;;;;;;;;;;5072066;28;20078;-63
2022/01/01 01:57:39;;;;;;;21.05;9.60;;;;;;;;;;5070963;28;20028;-63
2022/01/01 02:00:14;;;;;;;26.35;9.55;;;;;;;;;;5072249;28;20085;-64
2022/01/01 02:02:39;;;;;;;20.75;9.55;;;;;;;;;;5071840;28;20115;-63
2022/01/01 02:05:05;;;;;;;21.23;9.15;;;;;;;;;;5070260;28;20059;-63
2022/01/01 02:07:30;;;;;;;23.25;9.60;;;;;;;;;;5070825;28;20216;-63
2022/01/01 02:09:57;;;;;;;21.17;9.25;;;;;;;;;;5071334;28;20108;-63
2022/01/01 02:12:23;;;;;;;20.33;8.77;;;;;;;;;;5070188;28;20029;-63
2022/01/01 02:17:23;;;;;;;27.48;9.75;;;;;;;;;;5071003;28;20039;-63
2022/01/01 02:19:55;;;;;;;19.40;9.70;;;;;;;;;;5063191;28;20127;-64
2022/01/01 02:22:21;;;;;;;26.70;9.68;;;;;;;;;;5050673;28;20085;-63
2022/01/01 02:24:47;;;;;;;25.05;9.40;;;;;;;;;;5051404;28;20043;-63
2022/01/01 02:27:13;;;;;;;25.55;9.90;;;;;;;;;;5051382;28;20025;-64
2022/01/01 02:29:39;;;;;;;18.98;9.05;;;;;;;;;;5051380;28;20044;-64
2022/01/01 02:32:13;;;;;;;24.15;9.27;;;;;;;;;;5051308;28;20029;-63
2022/01/01 02:34:40;;;;;;;22.35;9.93;;;;;;;;;;5058635;28;20031;-63
2022/01/01 02:37:05;;;;;;;23.48;9.55;;;;;;;;;;5071636;28;20094;-64
2022/01/01 02:39:31;;;;;;;21.15;10.10;;;;;;;;;;5070712;28;20040;-63
2022/01/01 02:41:57;;;;;;;19.35;8.48;;;;;;;;;;5071310;28;20024;-64
2022/01/01 02:44:24;;;;;;;22.27;8.65;;;;;;;;;;5070229;28;20442;-64
2022/01/01 02:46:52;;;;;;;27.67;9.35;;;;;;;;;;5071506;28;20446;-64
2022/01/01 02:49:17;;;;;;;23.35;8.80;;;;;;;;;;5068913;28;20070;-65
2022/01/01 02:51:43;;;;;;;24.95;9.23;;;;;;;;;;5069501;28;20036;-64
2022/01/01 02:54:08;;;;;;;21.13;8.48;;;;;;;;;;5071204;28;20430;-64
2022/01/01 02:56:34;;;;;;;26.33;9.48;;;;;;;;;;5055649;28;20044;-64
2022/01/01 02:58:59;;;;;;;21.63;8.52;;;;;;;;;;5051175;28;20384;-64
2022/01/01 03:01:24;;;;;;;21.27;9.07;;;;;;;;;;5050498;28;20116;-64
2022/01/01 03:03:50;;;;;;;22.17;9.85;;;;;;;;;;5052725;28;20489;-64
2022/01/01 03:06:21;;;;;;;17.25;7.97;;;;;;;;;;5069482;28;20036;-66
2022/01/01 03:08:48;;;;;;;23.67;9.07;;;;;;;;;;5070210;28;20032;-64
2022/01/01 03:11:14;;;;;;;23.27;9.55;;;;;;;;;;5071135;28;20039;-64
2022/01/01 03:13:40;;;;;;;18.50;7.90;;;;;;;;;;5070208;28;20077;-64
2022/01/01 03:16:05;;;;;;;22.77;9.90;;;;;;;;;;5071078;28;20503;-64
2022/01/01 03:18:31;;;;;;;23.88;8.73;;;;;;;;;;5068354;28;20028;-64
2022/01/01 03:20:56;;;;;;;19.52;8.95;;;;;;;;;;5050933;28;20560;-64
2022/01/01 03:23:21;;;;;;;24.08;9.30;;;;;;;;;;5051791;28;20029;-64
2022/01/01 03:25:47;;;;;;;21.05;8.38;;;;;;;;;;5053827;28;20021;-64
2022/01/01 03:28:12;;;;;;;20.65;8.52;;;;;;;;;;5055027;28;20032;-64
2022/01/01 03:30:38;;;;;;;23.15;8.80;;;;;;;;;;5053502;28;20032;-64
2022/01/01 03:33:03;;;;;;;18.98;8.77;;;;;;;;;;5054200;28;20507;-65
2022/01/01 03:35:29;;;;;;;25.10;8.88;;;;;;;;;;5054262;28;20037;-64
2022/01/01 03:37:54;;;;;;;21.30;8.73;;;;;;;;;;5054314;28;20150;-64
2022/01/01 03:40:20;;;;;;;19.15;8.70;;;;;;;;;;5053888;28;20450;-65
2022/01/01 03:42:45;;;;;;;20.88;8.63;;;;;;;;;;5054959;28;20025;-63
2022/01/01 03:45:11;;;;;;;22.67;9.75;;;;;;;;;;5054105;28;20395;-63
2022/01/01 03:47:36;;;;;;;23.08;8.82;;;;;;;;;;5053625;28;20028;-63
2022/01/01 03:50:03;;;;;;;21.67;9.05;;;;;;;;;;5070450;28;20060;-63
2022/01/01 03:52:29;;;;;;;19.55;9.55;;;;;;;;;;5073823;28;20069;-63
2022/01/01 03:54:54;;;;;;;24.75;9.85;;;;;;;;;;5074163;28;20074;-64
2022/01/01 03:57:21;;;;;;;23.20;9.90;;;;;;;;;;5068775;28;20096;-66
2022/01/01 03:59:47;;;;;;;24.25;9.93;;;;;;;;;;5072524;28;20032;-64
2022/01/01 04:02:13;;;;;;;21.05;8.98;;;;;;;;;;5072814;28;20028;-64
2022/01/01 04:04:38;;;;;;;24.05;10.15;;;;;;;;;;5071978;28;20106;-65
2022/01/01 04:07:04;;;;;;;24.52;9.73;;;;;;;;;;5073855;28;20386;-64
2022/01/01 04:09:30;;;;;;;18.90;10.18;;;;;;;;;;5073149;28;20497;-64
2022/01/01 04:11:55;;;;;;;24.00;10.23;;;;;;;;;;5072443;28;20071;-64
2022/01/01 04:14:20;;;;;;;22.40;9.75;;;;;;;;;;5071292;28;20075;-66
2022/01/01 04:16:47;;;;;;;24.10;10.18;;;;;;;;;;5073359;28;20093;-64
2022/01/01 04:19:13;;;;;;;26.23;10.50;;;;;;;;;;5073722;28;20106;-63
2022/01/01 04:21:38;;;;;;;22.20;9.60;;;;;;;;;;5073011;28;20509;-64
2022/01/01 04:24:04;;;;;;;22.55;9.75;;;;;;;;;;5073578;28;20028;-64
2022/01/01 04:26:29;;;;;;;23.75;10.05;;;;;;;;;;5072977;28;20035;-64
2022/01/01 04:28:55;;;;;;;22.05;10.77;;;;;;;;;;5073688;28;20480;-64
2022/01/01 04:31:20;;;;;;;27.55;10.60;;;;;;;;;;5072982;28;20039;-66
2022/01/01 04:33:46;;;;;;;21.48;9.32;;;;;;;;;;5070709;28;20032;-64
2022/01/01 04:36:12;;;;;;;22.30;10.05;;;;;;;;;;5073942;28;20028;-64
2022/01/01 04:38:42;;;;;;;21.65;9.10;;;;;;;;;;5072434;28;20390;-64
2022/01/01 04:41:16;;;;;;;22.02;9.52;;;;;;;;;;5073460;28;20040;-64
2022/01/01 04:43:43;;;;;;;21.02;8.98;;;;;;;;;;5070420;28;20032;-64
2022/01/01 04:46:12;;;;;;;19.23;9.25;;;;;;;;;;5071950;28;20047;-65
2022/01/01 04:48:40;;;;;;;21.95;9.27;;;;;;;;;;5072275;28;20036;-64
2022/01/01 04:51:07;;;;;;;18.73;8.45;;;;;;;;;;5073176;28;20031;-64
2022/01/01 04:53:39;;;;;;;19.85;8.85;;;;;;;;;;5072242;28;20056;-65
2022/01/01 04:56:07;;;;;;;22.00;9.35;;;;;;;;;;5073175;28;20032;-64
2022/01/01 04:58:34;;;;;;;24.63;9.48;;;;;;;;;;5070422;28;20085;-65
2022/01/01 05:00:59;;;;;;;24.05;9.30;;;;;;;;;;5073126;28;20028;-64
2022/01/01 05:03:25;;;;;;;20.38;8.93;;;;;;;;;;5072236;28;20378;-66
2022/01/01 05:05:50;;;;;;;22.00;9.80;;;;;;;;;;5072686;28;20028;-64
2022/01/01 05:08:16;;;;;;;20.17;9.45;;;;;;;;;;5072811;28;20074;-64
2022/01/01 05:10:41;;;;;;;21.23;9.00;;;;;;;;;;5072191;28;20021;-64
2022/01/01 05:13:07;;;;;;;25.05;9.45;;;;;;;;;;5062811;28;20140;-64
2022/01/01 05:15:32;;;;;;;22.27;9.77;;;;;;;;;;5051605;28;20041;-64
2022/01/01 05:17:57;;;;;;;23.00;9.57;;;;;;;;;;5053342;28;20029;-64
2022/01/01 05:20:23;;;;;;;19.05;8.82;;;;;;;;;;5052566;28;20485;-66
2022/01/01 05:22:49;;;;;;;23.13;9.20;;;;;;;;;;5052477;28;20112;-64
2022/01/01 05:25:14;;;;;;;22.70;9.07;;;;;;;;;;5052348;28;20039;-64
2022/01/01 05:27:40;;;;;;;20.45;8.68;;;;;;;;;;5058424;28;20424;-64
2022/01/01 05:30:07;;;;;;;18.25;8.38;;;;;;;;;;5071519;28;20036;-64
2022/01/01 05:32:33;;;;;;;22.55;8.20;;;;;;;;;;5070522;28;20055;-64
2022/01/01 05:34:59;;;;;;;24.30;8.40;;;;;;;;;;5072166;28;20474;-65
2022/01/01 05:37:24;;;;;;;17.83;8.18;;;;;;;;;;5066474;28;20032;-66
2022/01/01 05:39:50;;;;;;;18.58;7.47;;;;;;;;;;5071752;28;20039;-64
2022/01/01 05:42:15;;;;;;;18.20;8.10;;;;;;;;;;5072219;28;20428;-64
2022/01/01 05:44:41;;;;;;;18.70;8.00;;;;;;;;;;5070985;28;20482;-64
2022/01/01 05:47:06;;;;;;;18.40;7.97;;;;;;;;;;5072077;28;20085;-64
2022/01/01 05:49:32;;;;;;;19.35;8.30;;;;;;;;;;5071106;28;20445;-65
2022/01/01 05:51:57;;;;;;;20.98;7.47;;;;;;;;;;5070372;28;20040;-66
2022/01/01 05:54:22;;;;;;;17.95;7.65;;;;;;;;;;5070981;28;20394;-65
2022/01/01 05:56:48;;;;;;;19.33;7.43;;;;;;;;;;5071480;28;20481;-64
2022/01/01 05:59:14;;;;;;;17.30;7.18;;;;;;;;;;5072234;28;20024;-64
2022/01/01 06:01:39;;;;;;;18.88;7.68;;;;;;;;;;5069677;28;20441;-65
2022/01/01 06:04:04;;;;;;;14.10;6.70;;;;;;;;;;5070776;28;20044;-64
2022/01/01 06:06:30;;;;;;;15.65;7.00;;;;;;;;;;5059353;28;20039;-64
2022/01/01 06:08:55;;;;;;;16.02;6.38;;;;;;;;;;5050692;28;20360;-64
2022/01/01 06:11:21;;;;;;;18.50;7.00;;;;;;;;;;5051243;28;20044;-64
2022/01/01 06:13:46;;;;;;;20.17;7.60;;;;;;;;;;5050676;28;20165;-64
2022/01/01 06:16:11;;;;;;;18.25;7.43;;;;;;;;;;5051784;28;20631;-64
2022/01/01 06:18:37;;;;;;;13.68;6.63;;;;;;;;;;5050748;28;20463;-64
2022/01/01 06:21:03;;;;;;;15.35;6.47;;;;;;;;;;5052721;28;20036;-64
2022/01/01 06:23:30;;;;;;;15.82;6.40;;;;;;;;;;5051011;28;20398;-66
2022/01/01 06:25:55;;;;;;;16.10;6.72;;;;;;;;;;5050473;28;20463;-65
2022/01/01 06:28:20;;;;;;;16.42;6.45;;;;;;;;;;5050652;28;20037;-64
2022/01/01 06:30:46;;;;;;;15.35;6.43;;;;;;;;;;5050923;28;20708;-64
2022/01/01 06:33:17;;;;;;;16.48;6.45;;;;;;;;;;5051512;28;20025;-65
2022/01/01 06:35:43;;;;;;;;;;;;;;;;;;5058811;28;20056;-64
2022/01/01 06:38:09;;;;;;;13.82;6.18;;;;;;;;;;5071553;28;20006;-64
2022/01/01 06:40:36;;;;;;;12.80;5.80;;;;;;;;;;5070879;28;20117;-65
2022/01/01 06:43:01;;;;;;;16.67;5.78;;;;;;;;;;5071298;28;20048;-64
2022/01/01 06:45:27;;;;;;;16.92;6.07;;;;;;;;;;5071528;28;20032;-67
2022/01/01 06:47:52;;;;;;;17.23;6.07;;;;;;;;;;5069701;28;20033;-64
2022/01/01 06:50:18;;;;;;;12.98;5.70;;;;;;;;;;5069543;28;20033;-64
2022/01/01 06:52:44;;;;;;;13.75;5.63;;;;;;;;;;5070446;28;20074;-64
2022/01/01 06:55:11;;;;;;;15.88;5.78;;;;;;;;;;5070237;28;20386;-64
2022/01/01 06:57:38;;;;;;;16.70;6.10;;;;;;;;;;5072775;28;20025;-64
2022/01/01 07:00:04;;;;;;;14.18;5.43;;;;;;;;;;5075638;28;20036;-64
2022/01/01 07:02:29;;;;;;;13.35;5.28;;;;;;;;;;5075302;28;20114;-66
2022/01/01 07:04:54;;;;;;;12.50;5.25;;;;;;;;;;5069802;28;20029;-64
2022/01/01 07:07:20;;;;;;;17.17;5.40;;;;;;;;;;5055243;28;20033;-64
2022/01/01 07:09:45;;;;;;;12.77;5.15;;;;;;;;;;5054506;28;20497;-64
2022/01/01 07:12:10;;;;;;;12.00;5.20;;;;;;;;;;5055547;28;20044;-64
2022/01/01 07:14:36;;;;;;;14.85;5.15;;;;;;;;;;5054092;28;20049;-64
2022/01/01 07:17:01;;;;;;;13.82;5.40;;;;;;;;;;5055018;28;20025;-64
2022/01/01 07:19:27;;;;;;;13.60;4.80;;;;;;;;;;5058768;28;20482;-64
2022/01/01 07:21:52;;;;;;;13.43;5.00;;;;;;;;;;5074607;28;20020;-64
2022/01/01 07:24:17;;;;;;;10.88;5.05;;;;;;;;;;5074943;28;20072;-64
2022/01/01 07:26:43;;;;;;;13.15;5.30;;;;;;;;;;5074501;28;20119;-64
2022/01/01 07:29:08;;;;;;;12.70;4.88;;;;;;;;;;5073203;28;20394;-64
2022/01/01 07:31:34;;;;;;;13.45;4.88;;;;;;;;;;5074158;28;20028;-66
2022/01/01 07:33:59;;;;;;;14.38;5.25;;;;;;;;;;5073282;28;20032;-65
2022/01/01 07:36:24;;;;;;;10.82;5.20;;;;;;;;;;5066147;28;20024;-65
2022/01/01 07:38:50;;;;;;;13.50;5.07;;;;;;;;;;5074020;28;20187;-64
2022/01/01 07:41:15;;;;;;;13.25;4.57;;;;;;;;;;5074543;28;20090;-63
2022/01/01 07:43:41;;;;;;;17.85;6.80;;;;;;;;;;5073880;28;20386;-64
2022/01/01 07:46:06;;;;;;;11.75;4.72;;;;;;;;;;5074226;28;20094;-65
2022/01/01 07:48:32;;;;;;;11.95;4.65;;;;;;;;;;5074311;28;20024;-66
2022/01/01 07:50:57;;;;;;;14.23;4.75;;;;;;;;;;5069470;28;20036;-64
2022/01/01 07:53:22;;;;;;;10.40;4.60;;;;;;;;;;5074650;28;20037;-64
2022/01/01 07:55:48;;;;;;;15.77;5.18;;;;;;;;;;5072349;28;20442;-64
2022/01/01 07:58:13;;;;;;;11.02;4.30;;;;;;;;;;5073054;28;20029;-64
2022/01/01 08:00:39;;;;;;;11.05;4.30;;;;;;;;;;5072378;28;20029;-65
2022/01/01 08:03:04;;;;;;;11.05;4.75;;;;;;;;;;5074421;28;20523;-64
2022/01/01 08:05:29;;;;;;;10.52;4.65;;;;;;;;;;5067982;28;20028;-64
2022/01/01 08:07:55;;;;;;;8.40;3.67;;;;;;;;;;5072818;28;20888;-64
2022/01/01 08:10:21;;;;;;;13.77;3.85;;;;;;;;;;5073203;28;20507;-64
2022/01/01 08:12:47;;;;;;;14.27;3.90;;;;;;;;;;5073433;28;20111;-64
2022/01/01 08:15:12;;;;;;;10.35;3.90;;;;;;;;;;5074301;28;20072;-64
2022/01/01 08:17:38;;;;;;;9.70;3.70;;;;;;;;;;5071372;28;20078;-65
2022/01/01 08:20:05;;;;;;;11.90;3.78;;;;;;;;;;5073708;28;20389;-64
2022/01/01 08:22:30;;;;;;;11.23;4.20;;;;;;;;;;5074083;28;20029;-64
2022/01/01 08:24:56;;;;;;;12.35;3.90;;;;;;;;;;5062017;28;20559;-64
2022/01/01 08:27:21;;;;;;;14.45;4.10;;;;;;;;;;5053680;28;20029;-64
2022/01/01 08:29:48;;;;;;;9.13;3.63;;;;;;;;;;5052780;28;20032;-64
2022/01/01 08:32:13;;;;;;;11.10;3.75;;;;;;;;;;5053852;28;20485;-65
2022/01/01 08:34:39;;;;;;;12.10;3.97;;;;;;;;;;5052886;28;20025;-64
2022/01/01 08:37:04;;;;;;;13.68;4.03;;;;;;;;;;5053439;28;20049;-64
2022/01/01 08:39:30;;;;;;;11.15;3.40;;;;;;;;;;5055252;28;20032;-64
2022/01/01 08:41:55;;;;;;;11.00;3.58;;;;;;;;;;5052567;28;20028;-64
2022/01/01 08:44:21;;;;;;;11.43;3.40;;;;;;;;;;5053447;28;20037;-65
2022/01/01 08:46:47;;;;;;;10.13;3.50;;;;;;;;;;5053095;28;20025;-64
2022/01/01 08:49:12;;;;;;;13.27;4.68;;;;;;;;;;5052342;28;20041;-64
2022/01/01 08:51:41;;;;;;;9.10;3.15;;;;;;;;;;5052548;28;20032;-66
2022/01/01 08:54:07;;;;;;;7.93;3.25;;;;;;;;;;5055114;28;20489;-65
2022/01/01 08:56:33;;;;;;;11.45;3.58;;;;;;;;;;5071873;28;20036;-65
2022/01/01 08:58:58;;;;;;;10.90;3.63;;;;;;;;;;5072715;28;20078;-64
2022/01/01 09:01:24;;;;;;;9.25;3.20;;;;;;;;;;5073323;28;20094;-63
2022/01/01 09:03:49;;;;;;;12.45;3.60;;;;;;;;;;5070273;28;20090;-63
2022/01/01 09:06:15;;;;;;;10.63;3.03;;;;;;;;;;5072814;28;20039;-64
2022/01/01 09:08:42;;;;;;;11.10;2.95;;;;;;;;;;5070841;28;20025;-62
2022/01/01 09:11:12;;;;;;;8.88;3.47;;;;;;;;;;5070672;28;20105;-64
2022/01/01 09:13:41;;;;;;;9.88;3.22;;;;;;;;;;5071918;28;20490;-62
2022/01/01 09:16:08;;;;;;;9.07;3.00;;;;;;;;;;5072441;28;20036;-63
2022/01/01 09:18:34;;;;;;;12.57;3.42;;;;;;;;;;5072805;28;20033;-64
2022/01/01 09:20:59;;;;;;;8.85;3.15;;;;;;;;;;5071428;28;20270;-64
2022/01/01 09:23:25;;;;;;;9.93;3.30;;;;;;;;;;5070922;28;20426;-65
2022/01/01 09:25:50;;;;;;;13.18;3.22;;;;;;;;;;5070542;28;20032;-63
2022/01/01 09:28:16;;;;;;;10.30;2.95;;;;;;;;;;5072431;28;20032;-64
2022/01/01 09:30:42;;;;;;;12.60;3.40;;;;;;;;;;5070958;28;20040;-63
2022/01/01 09:33:07;;;;;;;8.82;3.40;;;;;;;;;;5072032;28;20055;-63
2022/01/01 09:35:33;;;;;;;14.30;3.40;;;;;;;;;;5071836;28;20430;-64
2022/01/01 09:37:58;;;;;;;10.23;3.25;;;;;;;;;;5071319;28;20173;-62
2022/01/01 09:40:25;;;;;;;10.18;3.10;;;;;;;;;;5069247;28;20048;-63
2022/01/01 09:42:52;;;;;;;7.85;2.75;;;;;;;;;;5071040;28;20037;-62
2022/01/01 09:45:19;;;;;;;7.00;2.80;;;;;;;;;;5070385;28;20028;-62
2022/01/01 09:47:45;;;;;;;11.07;3.28;;;;;;;;;;5071154;28;20430;-63
2022/01/01 09:50:10;;;;;;;9.88;2.50;;;;;;;;;;5068541;28;20515;-63
2022/01/01 09:52:37;;;;;;;6.55;2.63;;;;;;;;;;5071741;28;20090;-62
2022/01/01 09:55:02;;;;;;;11.98;2.67;;;;;;;;;;5070505;28;20036;-63
2022/01/01 09:57:28;;;;;;;8.45;2.85;;;;;;;;;;5071037;28;20533;-63
2022/01/01 09:59:54;;;;;;;8.32;2.55;;;;;;;;;;5069271;28;20367;-63
2022/01/01 10:02:19;;;;;;;8.35;2.58;;;;;;;;;;5070406;28;20399;-63
2022/01/01 10:04:51;;;;;;;9.68;2.47;;;;;;;;;;5071074;28;20412;-63
2022/01/01 10:07:18;;;;;;;10.15;2.60;;;;;;;;;;5072172;28;20033;-62
2022/01/01 10:09:43;;;;;;;6.57;2.33;;;;;;;;;;5070233;28;20036;-65
2022/01/01 10:12:14;;;;;;;9.27;2.47;;;;;;;;;;5071988;28;20036;-61
2022/01/01 10:14:42;;;;;;;8.75;2.58;;;;;;;;;;5071763;28;20474;-64
2022/01/01 10:17:21;;;;;;;7.68;2.40;;;;;;;;;;5069668;28;20033;-63
2022/01/01 10:19:49;;;;;;;6.47;2.40;;;;;;;;;;5070831;28;20047;-63
2022/01/01 10:22:22;;;;;;;8.23;2.75;;;;;;;;;;5068809;28;20040;-63
2022/01/01 10:27:59;;;;;;;8.32;2.78;;;;;;;;;;5060433;28;20032;-62
2022/01/01 10:30:35;;;;;;;7.35;2.58;;;;;;;;;;5049943;28;20033;-62
2022/01/01 10:33:16;;;;;;;7.55;2.60;;;;;;;;;;5049136;28;20796;-63
2022/01/01 10:35:48;;;;;;;8.80;2.67;;;;;;;;;;5071560;28;20036;-65
2022/01/01 10:38:20;;;;;;;9.95;2.35;;;;;;;;;;5069291;28;20028;-62
2022/01/01 10:40:46;;;;;;;8.75;2.72;;;;;;;;;;5070187;28;20363;-63
2022/01/01 10:43:15;;;;;;;8.57;2.65;;;;;;;;;;5071337;28;20044;-62
2022/01/01 10:45:45;;;;;;;7.03;2.40;;;;;;;;;;5071571;28;20036;-64
2022/01/01 10:48:28;;;;;;;6.22;2.15;;;;;;;;;;5071723;28;20033;-62
2022/01/01 10:50:56;;;;;;;7.25;2.33;;;;;;;;;;5071014;28;20036;-62
2022/01/01 10:53:26;;;;;;;9.35;2.38;;;;;;;;;;5065517;28;20072;-62
2022/01/01 10:55:57;;;;;;;8.43;2.47;;;;;;;;;;5074800;28;20063;-63
2022/01/01 10:58:31;;;;;;;6.13;2.20;;;;;;;;;;5077721;28;20040;-65
2022/01/01 11:01:01;;;;;;;7.15;2.35;;;;;;;;;;5067250;28;20036;-63
2022/01/01 11:03:28;;;;;;;7.63;2.30;;;;;;;;;;5069967;28;20021;-62
2022/01/01 11:06:05;;;;;;;6.88;2.35;;;;;;;;;;5068592;28;20269;-62
2022/01/01 11:08:32;;;;;;;5.82;2.10;;;;;;;;;;5069518;28;20029;-61
2022/01/01 11:10:58;;;;;;;10.90;3.10;;;;;;;;;;5070681;28;20123;-61
2022/01/01 11:13:24;;;;;;;8.82;2.40;;;;;;;;;;5070052;28;20060;-62
2022/01/01 11:15:51;;;;;;;9.00;2.58;;;;;;;;;;5069104;28;20461;-63
2022/01/01 11:18:17;;;;;;;8.38;2.40;;;;;;;;;;5070816;28;20505;-62
2022/01/01 11:20:43;;;;;;;6.45;2.40;;;;;;;;;;5070674;28;20036;-64
2022/01/01 11:23:11;;;;;;;7.57;2.30;;;;;;;;;;5069978;28;20090;-62
2022/01/01 11:25:38;;;;;;;6.50;2.15;;;;;;;;;;5070700;28;20033;-62
2022/01/01 11:28:07;;;;;;;7.28;2.17;;;;;;;;;;5072301;28;20047;-62
2022/01/01 11:30:35;;;;;;;6.70;2.30;;;;;;;;;;5069588;28;20032;-64
2022/01/01 11:33:08;;;;;;;6.22;2.00;;;;;;;;;;5068445;28;20048;-61
2022/01/01 11:35:39;;;;;;;9.48;2.10;;;;;;;;;;5054734;28;20085;-62
2022/01/01 11:38:08;;;;;;;8.25;2.08;;;;;;;;;;5069528;28;20556;-62
2022/01/01 11:40:42;;;;;;;7.25;2.40;;;;;;;;;;5070419;28;20094;-62
2022/01/01 11:43:39;;;;;;;5.82;2.30;;;;;;;;;;5055000;28;20037;-62
2022/01/01 11:46:14;;;;;;;9.70;2.20;;;;;;;;;;5069079;28;20151;-62
2022/01/01 11:48:41;;;;;;;7.68;2.20;;;;;;;;;;5072629;28;20116;-62
2022/01/01 11:51:35;;;;;;;4.97;2.17;;;;;;;;;;5072133;28;20025;-62
2022/01/01 11:54:19;;;;;;;7.70;2.63;;;;;;;;;;5073235;28;20032;-62
2022/01/01 11:56:50;;;;;;;6.20;2.05;;;;;;;;;;5073860;28;20035;-61
2022/01/01 11:59:21;;;;;;;8.77;1.98;;;;;;;;;;5073306;28;20057;-62
2022/01/01 12:01:51;;;;;;;3.83;2.10;;;;;;;;;;5078265;28;20051;-63
2022/01/01 12:04:35;;;;;;;8.90;2.50;;;;;;;;;;5073941;28;20033;-62
2022/01/01 12:07:16;;;;;;;6.25;2.13;;;;;;;;;;5072625;28;20028;-62
2022/01/01 12:10:06;;;;;;;6.90;1.88;;;;;;;;;;5068506;28;20545;-62
2022/01/01 12:12:38;;;;;;;5.57;2.13;;;;;;;;;;5072879;28;20124;-62
2022/01/01 12:15:07;;;;;;;5.00;1.75;;;;;;;;;;5071253;28;20397;-62
2022/01/01 12:17:48;;;;;;;7.22;2.13;;;;;;;;;;5074030;28;20033;-63
2022/01/01 12:20:14;;;;;;;;;;;;;;;;;;5087518;28;20032;-62
2022/01/01 12:22:42;;;;;;;6.50;1.95;;;;;;;;;;5073165;28;20366;-63
2022/01/01 12:25:07;;;;;;;5.40;2.05;;;;;;;;;;5069863;28;20024;-62
2022/01/01 12:27:47;;;;;;;5.22;2.03;;;;;;;;;;5071394;28;20024;-61
2022/01/01 12:30:16;;;;;;;6.63;2.13;;;;;;;;;;5072854;28;20025;-63
2022/01/01 12:32:46;;;;;;;7.55;2.13;;;;;;;;;;5073406;28;20115;-63
2022/01/01 12:35:17;;;;;;;7.40;2.13;;;;;;;;;;5072593;28;20535;-63
2022/01/01 12:37:43;;;;;;;6.38;2.10;;;;;;;;;;5073166;28;20021;-63
2022/01/01 12:40:11;;;;;;;5.53;2.25;;;;;;;;;;5071584;28;20036;-62
2022/01/01 12:42:37;;;;;;;5.10;1.92;;;;;;;;;;5069379;28;20024;-62
2022/01/01 12:45:06;;;;;;;6.38;2.10;;;;;;;;;;5068807;28;20401;-62
2022/01/01 12:47:32;;;;;;;6.10;2.35;;;;;;;;;;5072327;28;20032;-61
2022/01/01 12:49:59;;;;;;;4.85;2.10;;;;;;;;;;5068964;28;20037;-61
2022/01/01 12:52:25;;;;;;;6.88;2.45;;;;;;;;;;5070666;28;20033;-62
2022/01/01 12:54:50;;;;;;;5.35;2.30;;;;;;;;;;5069998;28;20458;-64
2022/01/01 12:57:19;;;;;;;5.97;2.30;;;;;;;;;;5068642;28;20040;-62
2022/01/01 12:59:48;;;;;;;6.32;2.30;;;;;;;;;;5064732;28;20120;-63
2022/01/01 13:02:14;;;;;;;7.10;2.33;;;;;;;;;;5065952;28;20536;-63
2022/01/01 13:04:39;;;;;;;6.85;2.17;;;;;;;;;;5069723;28;20086;-63
2022/01/01 13:07:05;;;;;;;8.43;2.60;;;;;;;;;;5067549;28;20040;-63
2022/01/01 13:09:31;;;;;;;5.55;2.40;;;;;;;;;;5066567;28;20091;-62
2022/01/01 13:12:01;;;;;;;7.70;2.10;;;;;;;;;;5069798;28;20028;-62
2022/01/01 13:14:28;;;;;;;4.87;2.07;;;;;;;;;;5069212;28;20040;-62
2022/01/01 13:16:55;;;;;;;4.45;2.08;;;;;;;;;;5070664;28;20392;-64
2022/01/01 13:19:21;;;;;;;6.07;2.38;;;;;;;;;;5069245;28;20031;-63
2022/01/01 13:21:46;;;;;;;6.97;2.30;;;;;;;;;;5067496;28;20052;-62
2022/01/01 13:24:12;;;;;;;6.95;2.22;;;;;;;;;;5068026;28;20066;-62
2022/01/01 13:26:38;;;;;;;4.45;2.00;;;;;;;;;;5071502;28;20032;-62
2022/01/01 13:29:04;;;;;;;5.22;2.00;;;;;;;;;;5068164;28;20126;-62
2022/01/01 13:31:32;;;;;;;6.25;2.03;;;;;;;;;;5070094;28;20456;-62
2022/01/01 13:34:00;;;;;;;6.20;2.10;;;;;;;;;;5071627;28;20036;-63
2022/01/01 13:36:43;;;;;;;5.38;2.13;;;;;;;;;;5071755;28;20059;-62
2022/01/01 13:39:21;;;;;;;6.32;1.90;;;;;;;;;;5071084;28;20031;-62
2022/01/01 13:41:53;;;;;;;5.22;2.30;;;;;;;;;;5072700;28;20051;-62
2022/01/01 13:44:26;;;;;;;4.75;1.90;;;;;;;;;;5071732;28;20043;-62
2022/01/01 13:47:10;;;;;;;4.38;2.00;;;;;;;;;;5059652;28;20029;-65
2022/01/01 13:49:42;;;;;;;7.75;2.15;;;;;;;;;;5071983;28;20561;-62
2022/01/01 13:52:09;;;;;;;5.53;1.98;;;;;;;;;;5069636;28;20042;-62
2022/01/01 13:54:37;;;;;;;5.38;2.00;;;;;;;;;;5071593;28;20028;-62
2022/01/01 13:57:06;;;;;;;4.03;1.92;;;;;;;;;;5069427;28;20497;-62
2022/01/01 13:59:32;;;;;;;4.88;2.00;;;;;;;;;;5073405;28;20041;-62
2022/01/01 14:01:58;;;;;;;4.00;2.13;;;;;;;;;;5071118;28;20093;-62
2022/01/01 14:04:24;;;;;;;6.03;2.08;;;;;;;;;;5071308;28;20406;-62
2022/01/01 14:07:06;;;;;;;5.07;2.03;;;;;;;;;;5068500;28;20432;-62
2022/01/01 14:09:32;;;;;;;3.78;1.90;;;;;;;;;;5070926;28;20037;-63
2022/01/01 14:11:57;;;;;;;5.28;2.10;;;;;;;;;;5071140;28;20038;-62
2022/01/01 14:14:31;;;;;;;5.68;2.13;;;;;;;;;;5071774;28;20041;-61
2022/01/01 14:16:58;;;;;;;5.32;2.00;;;;;;;;;;5075231;28;20040;-64
2022/01/01 14:19:24;;;;;;;5.57;2.10;;;;;;;;;;5073792;28;20081;-62
2022/01/01 14:21:52;;;;;;;7.00;1.90;;;;;;;;;;5071311;28;20111;-65
2022/01/01 14:24:22;;;;;;;6.13;2.10;;;;;;;;;;5068834;28;20229;-62
2022/01/01 14:26:53;;;;;;;5.32;1.90;;;;;;;;;;5070437;28;20029;-61
2022/01/01 14:29:24;;;;;;;5.70;2.15;;;;;;;;;;5070439;28;20032;-62
2022/01/01 14:31:51;;;;;;;7.22;2.22;;;;;;;;;;5070559;28;20061;-61
2022/01/01 14:34:18;;;;;;;6.43;2.40;;;;;;;;;;5079259;28;20043;-62
2022/01/01 14:36:46;;;;;;;4.80;2.13;;;;;;;;;;5081774;28;20035;-62
2022/01/01 14:39:12;;;;;;;6.35;2.42;;;;;;;;;;5070606;28;20047;-61